Date,TemperatureHighF,TemperatureAvgF,TemperatureLowF,DewpointHighF,DewpointAvgF,DewpointLowF,HumidityHigh,HumidityAvg,HumidityLow,PressureMaxIn,PressureMinIn,WindSpeedMaxMPH,WindSpeedAvgMPH,GustSpeedMaxMPH,PrecipitationSumIn
2013-3-30,70.7,69.6,68.5,35.8,33.4,30.6,29,26,24,29.94,29.88,0,0,0,0.01
2013-3-31,68.5,48.6,34.5,34.9,26.1,14.4,95,49,21,29.94,29.58,7,2,18,0.18
2013-4-1,44.1,33.2,25.7,42.0,25.4,3.7,99,77,31,29.60,29.41,12,4,33,0.28
2013-4-2,30.6,24.5,20.1,17.3,6.5,-1.3,79,46,28,29.68,29.57,17,9,36,0.00
2013-4-3,38.1,27.4,20.7,10.3,4.5,-1.5,57,39,20,29.95,29.67,13,9,32,0.00
2013-4-4,48.0,33.9,19.8,21.3,11.6,2.3,68,42,22,30.06,29.78,9,4,18,0.00
2013-4-5,51.3,37.4,27.5,28.2,18.0,9.4,85,48,24,29.78,29.57,8,3,21,0.00
2013-4-6,41.9,28.5,19.2,15.3,5.5,-5.9,67,40,20,30.11,29.75,10,4,23,0.00
2013-4-7,56.3,40.3,25.7,36.5,18.8,1.2,75,44,22,30.08,29.73,7,2,20,0.00
2013-4-8,59.7,46.1,38.3,37.3,31.6,25.2,76,59,27,29.94,29.76,10,3,20,0.00
2013-4-9,59.9,47.7,39.2,46.3,38.8,31.2,96,73,47,29.88,29.69,12,3,26,0.09
2013-4-10,50.4,43.5,39.6,45.8,41.5,37.2,98,93,79,29.85,29.72,4,1,8,0.77
2013-4-11,40.5,33.0,28.6,39.7,27.9,21.5,98,82,63,29.96,29.72,6,2,14,0.04
2013-4-12,30.9,29.2,26.8,27.5,24.9,19.8,91,84,63,29.96,29.64,6,3,22,0.01
2013-4-13,48.2,36.6,29.7,36.4,31.2,27.4,92,82,56,29.76,29.61,8,2,16,0.26
2013-4-14,41.9,35.5,26.2,33.9,27.3,21.4,92,73,48,30.03,29.73,9,3,17,0.01
2013-4-15,62.6,43.0,22.5,33.1,27.0,18.9,90,58,28,30.14,30.03,5,1,11,0.00
2013-4-16,60.4,49.3,37.2,52.2,40.3,29.0,91,72,54,30.13,29.83,11,4,29,0.11
2013-4-17,57.4,45.9,32.7,48.1,30.7,22.2,87,58,26,30.18,29.89,10,3,25,0.01
2013-4-18,63.0,45.4,29.5,38.8,29.1,22.7,78,55,32,30.19,29.88,6,2,24,0.00
2013-4-19,71.4,58.6,48.6,57.4,50.6,38.7,89,75,51,29.88,29.40,14,3,31,0.04
2013-4-20,48.0,39.8,31.3,42.5,24.3,12.6,97,56,36,30.06,29.54,14,8,30,0.20
2013-4-21,46.0,33.5,24.4,19.0,11.3,4.6,64,42,20,30.46,30.06,9,4,20,0.00
2013-4-22,57.7,38.9,24.8,24.7,15.9,9.0,72,42,20,30.51,30.35,5,2,17,0.00
2013-4-23,42.8,35.2,28.0,34.1,28.8,22.9,90,77,68,30.35,29.97,4,2,17,0.00
2013-4-24,76.6,55.3,35.4,47.6,38.1,29.6,97,60,21,29.97,29.57,8,2,19,0.00
2013-4-25,60.4,44.6,27.9,48.5,28.3,15.7,79,56,22,30.12,29.58,15,5,31,0.01
2013-4-26,56.5,42.6,26.8,33.9,25.7,18.4,77,54,31,30.26,30.10,5,1,14,0.00
2013-4-27,63.3,45.0,26.2,36.8,25.4,18.3,95,54,18,30.26,30.14,6,1,14,0.00
2013-4-28,76.6,52.6,27.9,36.7,29.0,23.1,86,48,17,30.15,30.00,7,1,14,0.00
2013-4-29,66.4,54.1,44.4,39.9,36.4,32.8,67,52,34,30.08,30.01,5,1,14,0.00
2013-4-30,77.4,58.3,46.9,44.4,36.3,24.5,66,46,24,30.17,30.07,4,1,13,0.00
2013-5-1,80.4,59.7,35.1,34.4,27.3,20.2,77,36,12,30.29,30.17,4,1,17,0.00
2013-5-2,80.4,58.8,36.9,44.4,36.1,26.8,86,48,19,30.30,30.18,5,2,17,0.00
2013-5-3,73.6,55.2,38.1,40.5,34.4,25.2,78,49,23,30.34,30.20,4,2,14,0.00
2013-5-4,79.0,57.6,35.8,44.4,34.4,23.2,99,52,14,30.22,30.07,4,1,14,0.00
2013-5-5,79.0,57.8,34.5,33.8,28.4,20.6,73,39,14,30.12,30.03,4,1,17,0.00
2013-5-6,82.2,59.6,32.4,40.2,28.3,18.5,87,40,11,30.08,29.96,3,1,12,0.00
2013-5-7,86.5,63.2,38.7,50.6,37.1,26.1,90,46,13,30.03,29.93,4,1,11,0.00
2013-5-8,75.7,59.9,45.1,59.2,52.4,42.1,99,78,47,30.05,29.91,4,1,12,0.47
2013-5-9,74.5,58.8,48.0,59.8,53.3,47.8,99,84,43,29.91,29.76,3,0,8,0.13
2013-5-10,75.6,60.8,45.9,56.9,50.8,45.1,99,73,46,29.85,29.73,4,1,11,0.00
2013-5-11,68.2,60.6,53.4,61.4,55.2,49.8,97,83,64,29.73,29.54,4,1,12,0.31
2013-5-12,60.4,50.1,38.8,51.5,39.3,19.4,99,70,27,29.66,29.50,8,2,24,0.01
2013-5-13,46.6,39.2,34.5,31.6,27.4,23.5,76,63,49,29.88,29.64,8,4,25,0.00
2013-5-14,55.8,40.5,26.2,32.9,28.0,22.3,93,64,32,29.91,29.83,5,1,14,0.00
2013-5-15,64.9,43.6,24.8,50.6,34.4,22.8,99,76,23,29.88,29.49,3,1,12,0.09
2013-5-16,74.7,59.0,44.1,50.1,37.9,25.9,99,51,18,29.73,29.50,11,4,37,0.00
2013-5-17,67.5,50.8,36.1,41.4,37.5,32.3,90,65,28,30.08,29.73,7,2,21,0.00
2013-5-18,76.1,55.2,31.8,47.5,35.3,27.0,99,57,19,30.15,30.08,4,1,11,0.00
2013-5-19,71.6,52.4,38.3,52.3,46.7,37.7,99,83,42,30.14,30.00,2,0,13,0.26
2013-5-20,72.7,60.0,52.0,62.1,56.5,51.4,99,89,66,30.02,29.86,3,1,9,0.00
2013-5-21,86.0,66.4,52.9,65.5,59.5,52.3,99,82,45,29.88,29.73,4,1,13,0.87
2013-5-22,79.3,62.9,51.8,67.0,59.5,51.3,99,90,63,29.81,29.71,2,0,8,0.53
2013-5-23,75.9,66.6,58.3,65.9,60.5,57.8,99,82,58,29.73,29.64,5,1,12,0.01
2013-5-24,62.2,48.0,39.9,60.4,47.5,39.7,99,98,92,29.81,29.55,5,2,15,0.96
2013-5-25,41.4,38.8,33.3,41.1,38.3,33.0,99,98,96,29.79,29.69,4,2,16,0.98
2013-5-26,50.7,39.8,33.4,42.5,37.7,33.2,99,93,66,29.88,29.65,6,3,25,0.15
2013-5-27,70.2,56.9,37.8,49.0,39.6,34.3,99,58,28,30.05,29.96,5,2,13,0.00
2013-5-28,77.4,54.0,32.4,49.9,40.8,32.1,99,67,26,30.08,29.99,2,0,11,0.00
2013-5-29,65.3,57.5,52.5,62.1,55.4,44.9,99,93,69,30.00,29.85,2,0,6,0.17
2013-5-30,85.5,72.3,61.9,65.3,62.2,59.5,97,73,47,29.99,29.89,4,2,14,0.00
2013-5-31,90.9,73.9,56.5,68.2,61.0,56.2,99,69,34,30.01,29.86,5,1,14,0.00
2013-6-1,89.4,77.5,63.0,66.0,62.2,59.2,92,62,41,29.88,29.76,5,1,14,0.00
2013-6-2,89.8,71.4,61.9,67.7,63.8,61.3,98,79,45,29.76,29.61,9,1,26,0.63
2013-6-3,71.4,62.9,48.7,61.5,52.5,38.3,99,70,52,29.76,29.69,6,2,15,0.01
2013-6-4,69.1,53.7,42.1,48.4,41.9,35.4,96,66,45,29.98,29.75,4,2,14,0.00
2013-6-5,73.6,55.1,37.0,49.1,39.7,21.7,99,64,15,30.06,29.98,4,1,11,0.00
2013-6-6,72.5,58.1,46.4,52.4,46.1,39.1,99,66,44,30.03,29.94,3,1,11,0.12
2013-6-7,51.8,49.5,47.5,51.4,49.0,47.2,99,98,95,29.94,29.73,3,1,11,0.76
2013-6-8,65.8,55.2,48.7,61.6,53.9,48.5,99,95,82,29.91,29.61,4,1,11,0.47
2013-6-9,77.7,61.2,49.8,57.8,53.8,49.5,99,80,43,30.07,29.89,3,1,11,0.00
2013-6-10,70.5,57.4,45.1,59.1,53.4,44.3,99,88,56,30.08,29.83,2,0,10,0.20
2013-6-11,58.5,54.2,52.5,56.2,53.3,52.0,99,97,90,29.83,29.46,3,1,11,1.19
2013-6-12,68.4,55.0,46.6,56.7,52.2,46.3,99,91,61,29.74,29.47,4,2,15,0.28
2013-6-13,61.7,52.0,41.7,57.7,49.9,41.5,99,93,75,29.72,29.59,1,0,8,0.18
2013-6-14,75.7,59.9,48.0,57.4,52.0,47.8,99,78,44,29.74,29.57,3,1,13,0.00
2013-6-15,76.6,59.3,41.5,50.0,45.5,41.3,99,66,32,29.84,29.73,4,1,14,0.00
2013-6-16,75.0,57.7,44.1,59.5,51.9,43.5,99,83,47,29.84,29.60,3,1,14,0.06
2013-6-17,78.6,62.5,49.5,63.1,56.5,49.2,99,82,50,29.81,29.68,5,1,17,0.08
2013-6-18,61.9,55.6,48.2,56.1,53.2,47.7,98,92,78,29.87,29.78,2,0,8,0.13
2013-6-19,71.1,54.2,39.2,52.0,43.8,38.9,99,73,33,30.06,29.83,4,1,12,0.00
2013-6-20,78.8,58.8,36.5,52.9,43.7,35.7,99,65,23,30.11,30.05,3,1,12,0.00
2013-6-21,85.1,64.3,47.3,57.9,51.3,47.0,99,69,32,30.14,30.08,3,0,11,0.00
2013-6-22,83.8,67.9,50.5,65.0,58.7,49.9,99,75,49,30.11,29.99,3,1,11,0.02
2013-6-23,90.1,71.8,61.7,72.2,65.6,25.5,99,83,46,30.02,29.87,5,1,20,0.21
2013-6-24,87.6,72.0,62.2,72.3,66.1,61.7,99,83,57,29.93,29.84,4,1,17,0.05
2013-6-25,87.3,71.2,61.0,68.8,64.6,59.8,99,82,49,29.89,29.69,5,1,16,0.32
2013-6-26,77.0,66.9,61.0,70.1,65.1,60.4,99,94,74,29.74,29.67,1,0,5,0.44
2013-6-27,85.6,70.3,58.1,72.8,65.5,57.8,99,86,60,29.74,29.62,2,0,9,0.01
2013-6-28,79.0,66.6,57.7,68.0,62.2,57.2,99,87,64,29.62,29.39,3,1,14,0.85
2013-6-29,83.5,70.1,60.3,67.6,62.4,58.4,99,79,46,29.61,29.41,4,1,15,0.11
2013-6-30,85.5,71.2,59.9,68.0,63.1,59.6,99,78,49,29.83,29.61,2,0,8,0.00
2013-7-1,82.6,69.3,61.9,69.7,65.7,61.3,99,89,61,29.97,29.83,1,0,7,1.06
2013-7-2,85.8,71.1,62.2,72.6,67.4,61.7,99,89,58,30.05,29.93,2,0,6,0.37
2013-7-3,88.0,74.2,64.9,71.3,67.4,64.7,99,82,52,30.09,30.02,3,1,12,0.05
2013-7-4,91.8,77.1,65.7,71.4,68.8,65.4,99,78,49,30.11,30.00,3,1,14,0.07
2013-7-5,90.1,76.5,68.0,72.4,69.2,66.3,99,81,47,30.07,29.97,4,1,14,0.24
2013-7-6,85.1,73.9,65.3,70.3,66.7,62.1,99,80,52,30.01,29.93,4,1,11,0.08
2013-7-7,91.2,72.5,61.2,75.5,66.1,60.0,98,82,53,29.96,29.84,2,0,8,0.90
2013-7-8,84.4,71.2,65.5,73.4,67.4,65.2,99,89,59,29.96,29.85,3,0,9,0.04
2013-7-9,88.9,72.5,64.6,72.2,67.5,64.3,99,86,54,29.99,29.93,2,0,6,1.83
2013-7-10,81.1,71.5,66.2,73.4,68.3,65.8,99,90,71,29.93,29.69,2,0,9,0.14
2013-7-11,82.9,70.7,58.5,68.8,63.7,57.3,97,80,51,29.91,29.67,3,1,11,0.00
2013-7-12,87.6,67.8,54.7,64.8,59.0,53.9,99,77,41,30.10,29.91,2,0,6,0.00
2013-7-13,82.8,69.9,57.0,67.5,62.3,56.8,99,78,55,30.20,30.10,2,0,8,0.00
2013-7-14,87.4,73.3,62.1,71.3,66.3,61.5,99,81,51,30.22,30.14,2,0,7,0.00
2013-7-15,92.7,74.8,61.7,72.5,65.4,61.1,99,76,43,30.15,30.06,3,1,11,0.00
2013-7-16,90.3,74.2,59.7,68.4,64.0,59.2,99,74,42,30.14,30.08,4,1,14,0.00
2013-7-17,93.0,77.2,60.8,70.7,66.3,60.0,98,72,46,30.12,29.92,3,1,12,0.00
2013-7-18,93.0,78.2,67.3,72.9,69.3,65.3,98,77,48,29.97,29.86,4,1,14,0.52
2013-7-19,91.0,79.2,67.1,73.1,69.0,65.5,99,74,48,29.87,29.65,6,2,21,0.26
2013-8-1,61.5,61.4,61.3,60.8,60.7,60.7,98,97,97,29.74,29.74,0,0,0,0.30
2013-8-2,79.3,67.0,56.8,62.5,57.9,53.6,99,76,44,29.76,29.69,4,1,14,0.02
2013-8-3,77.7,62.9,53.1,59.1,54.9,51.4,99,78,45,29.76,29.69,4,1,16,0.15
2013-8-4,73.2,58.7,48.6,61.1,53.8,48.3,99,85,52,29.82,29.72,3,1,16,0.43
2013-8-5,73.0,56.8,45.0,54.4,46.7,40.9,99,75,34,29.94,29.82,4,1,18,0.01
2013-8-6,81.5,60.5,41.7,58.9,49.9,41.5,99,73,34,30.01,29.94,2,0,6,0.00
2013-8-7,81.5,65.9,53.1,61.1,56.1,50.9,95,73,43,30.03,29.94,2,1,11,0.00
2013-8-8,89.6,71.4,63.5,68.5,63.3,58.1,91,77,47,29.95,29.88,2,0,11,0.00
2013-8-9,77.5,70.5,66.9,71.7,67.5,65.0,98,90,78,29.89,29.68,2,0,7,0.25
2013-8-10,78.1,66.1,48.7,67.7,54.6,44.1,97,71,34,29.93,29.73,4,1,13,0.01
2013-8-11,78.4,59.7,43.5,57.2,50.2,43.0,99,75,43,29.98,29.90,2,0,10,0.00
2013-8-12,80.2,63.1,48.7,59.6,54.2,48.2,99,76,43,29.93,29.82,3,0,11,0.00
2013-8-13,71.6,61.1,54.9,65.5,59.2,53.4,98,93,78,29.82,29.60,0,0,3,0.56
2013-8-14,71.2,56.2,47.7,60.5,51.5,47.2,99,85,56,29.86,29.60,4,1,14,0.11
2013-8-15,72.5,55.2,39.9,55.4,47.6,39.7,99,79,47,29.99,29.86,4,1,13,0.00
2013-8-16,79.7,59.4,43.9,58.2,50.7,43.4,99,77,42,30.08,29.97,3,0,11,0.00
2013-8-17,82.8,61.9,45.1,59.9,52.5,44.3,99,76,41,30.17,30.08,2,0,8,0.00
2013-8-18,77.5,62.5,50.2,61.9,55.1,49.9,99,80,48,30.16,29.99,2,0,6,0.00
2013-8-19,81.5,67.9,50.9,61.3,57.3,50.6,99,72,47,29.99,29.88,4,1,6,0.00
2013-8-20,78.6,78.6,78.6,61.1,61.1,61.1,55,55,55,29.89,29.89,1,1,2,0.00
2013-8-21,78.6,78.6,78.6,61.1,61.1,61.1,55,55,55,29.89,29.89,1,1,2,0.00
2013-8-22,78.6,78.6,78.6,61.1,61.1,61.1,55,55,55,29.89,29.89,1,1,2,0.00
2013-8-23,78.6,71.2,47.5,61.1,56.5,45.8,95,61,45,30.06,29.89,4,1,12,0.41
2013-8-24,81.3,58.4,40.3,55.6,48.5,40.0,99,76,35,30.22,30.06,2,0,8,0.00
2013-8-25,78.8,61.2,42.8,57.9,50.7,42.3,99,73,41,30.24,30.05,6,1,13,0.14
2013-8-26,75.4,66.2,59.5,65.3,60.5,54.9,94,82,69,30.06,29.81,5,2,12,0.09
2013-8-27,73.4,69.9,65.5,67.3,66.0,64.3,97,88,81,29.83,29.77,3,1,7,0.22
2013-8-28,73.4,72.0,63.3,67.3,66.5,61.4,96,83,77,29.88,29.77,2,2,10,0.22
2013-8-29,79.9,65.9,57.2,66.1,61.0,56.7,98,86,60,29.97,29.86,3,0,11,0.01
2013-8-30,83.3,69.7,59.9,65.5,62.3,59.1,97,79,52,29.91,29.72,5,1,12,0.00
2013-8-31,79.2,69.7,63.5,72.4,66.2,62.1,97,89,74,29.73,29.67,3,0,8,0.11
2013-9-1,84.6,72.3,66.2,69.4,66.4,64.8,96,83,56,29.78,29.71,3,1,7,0.00
2013-9-2,84.2,70.4,61.2,70.0,65.9,59.7,97,86,54,29.76,29.61,6,0,15,0.54
2013-9-3,72.5,63.3,57.9,62.6,57.7,53.1,97,83,59,29.73,29.62,6,2,17,0.00
2013-9-4,75.4,64.3,56.1,57.0,53.8,49.3,93,70,48,29.81,29.73,8,3,19,0.00
2013-9-5,66.2,55.7,38.1,56.1,47.1,37.6,98,76,39,30.03,29.76,6,2,16,0.15
2013-9-6,67.6,49.0,31.6,47.0,38.3,31.1,99,72,34,30.10,29.95,5,1,15,0.00
2013-9-7,73.9,57.0,45.0,50.8,46.1,41.8,92,69,35,29.95,29.74,4,1,14,0.01
2013-9-8,63.9,55.3,38.5,54.7,45.6,36.6,93,72,43,29.96,29.67,6,2,20,0.01
2013-9-9,70.5,49.9,32.2,47.3,40.1,31.2,99,74,35,30.06,29.95,4,1,11,0.00
2013-9-10,73.6,60.5,46.9,66.2,57.8,45.5,97,91,75,29.97,29.87,3,0,11,0.25
2013-9-11,89.8,79.1,63.1,70.9,68.5,61.7,96,72,49,29.96,29.85,7,3,19,0.00
2013-9-12,82.2,66.5,62.1,69.3,63.2,60.1,97,90,60,29.85,29.56,7,0,8,0.54
2013-9-13,62.1,56.8,49.8,60.7,55.8,48.6,98,96,95,29.71,29.52,5,2,13,0.34
2013-9-14,57.4,51.9,46.2,50.1,48.1,45.4,99,87,72,29.93,29.71,4,2,13,0.01
2013-9-15,66.2,51.7,36.3,50.6,45.5,35.6,99,81,51,30.00,29.90,5,1,13,0.00
2013-9-16,56.3,48.1,34.0,51.9,43.3,30.8,96,84,56,30.13,29.88,7,2,17,0.07
2013-9-17,63.3,44.7,28.8,45.4,36.8,28.0,99,77,45,30.26,30.13,4,1,15,0.00
2013-9-18,72.9,46.9,33.6,49.6,39.6,32.5,99,80,33,30.18,30.01,5,1,13,0.00
2013-9-19,78.1,56.1,40.1,56.5,47.0,39.8,99,77,34,30.02,29.93,4,1,10,0.00
2013-9-20,83.7,60.3,41.9,59.1,49.9,41.6,99,74,32,29.97,29.85,3,0,11,0.00
2013-9-21,76.3,61.2,50.5,59.3,53.7,48.6,95,79,44,29.86,29.53,7,2,24,0.09
2013-9-22,61.7,54.0,43.9,59.4,48.9,40.1,96,83,63,29.75,29.47,8,3,23,0.41
2013-9-23,57.0,44.2,36.5,42.4,37.7,34.1,97,79,57,29.88,29.74,8,3,21,0.00
2013-9-24,42.4,41.6,41.2,37.8,37.4,36.9,86,85,83,29.87,29.82,5,2,12,0.00
2013-9-26,67.8,54.6,38.7,49.5,44.9,37.9,98,72,46,30.01,29.87,5,2,12,0.00
2013-9-27,62.6,47.9,37.2,50.2,43.8,35.7,99,87,61,30.15,30.00,3,0,7,0.00
2013-9-28,77.9,53.5,37.2,58.2,45.5,35.7,99,79,38,30.20,30.12,4,0,8,0.00
2013-9-29,75.4,56.7,39.6,59.0,47.3,39.3,99,75,42,30.12,29.95,3,0,10,0.00
2013-9-30,77.0,53.9,37.8,54.2,45.9,37.5,99,79,38,29.97,29.85,3,1,11,0.00
2013-10-1,76.1,55.8,39.0,56.5,48.8,38.8,99,81,47,29.87,29.78,6,1,14,0.00
2013-10-2,75.6,61.1,48.9,59.1,53.0,46.8,95,76,56,29.88,29.75,8,2,23,0.00
2013-10-3,73.8,56.5,41.4,49.5,45.1,40.0,97,70,33,29.97,29.87,4,1,11,0.00
2013-10-4,66.0,53.8,40.5,52.5,48.1,40.1,99,82,56,29.95,29.90,2,0,14,0.00
2013-10-5,64.2,56.0,53.4,52.5,51.3,48.4,92,85,64,29.99,29.92,3,0,8,0.00
2013-10-6,55.4,50.4,47.3,52.1,48.1,45.9,96,92,79,30.03,29.94,4,2,17,0.31
2013-10-7,69.8,57.2,49.5,62.5,53.4,44.8,96,87,72,29.94,29.53,12,3,99,0.44
2013-10-8,61.5,48.9,33.1,44.8,38.5,31.0,92,70,40,30.22,29.77,7,2,18,0.00
2013-10-9,68.9,46.0,32.0,41.7,34.8,30.2,97,71,32,30.30,30.19,4,1,11,0.00
2013-10-10,68.7,48.9,32.4,43.8,35.0,23.5,98,65,20,30.19,30.02,2,0,8,0.00
2013-10-11,75.0,55.8,41.0,46.8,39.0,29.5,85,57,22,30.04,29.99,3,0,9,0.00
2013-10-12,63.7,52.7,39.4,51.6,46.2,36.7,93,79,63,30.22,30.03,5,2,16,0.00
2013-10-13,68.2,52.9,41.4,48.7,44.4,37.4,97,76,44,30.26,30.19,4,1,12,0.00
2013-10-14,65.1,52.2,41.7,51.4,47.1,41.5,99,84,61,30.20,30.09,4,1,11,0.00
2013-10-15,60.4,55.9,51.1,52.1,50.8,49.4,94,83,73,30.12,29.99,3,1,11,0.00
2013-10-16,67.8,54.7,48.2,50.2,47.6,45.5,96,78,47,29.99,29.71,4,1,14,0.00
2013-10-17,66.4,55.9,47.7,52.6,47.1,42.2,93,74,48,29.72,29.55,7,2,15,0.14
2013-10-18,58.3,51.4,46.6,50.8,43.7,34.3,96,76,52,29.75,29.46,12,6,27,0.34
2013-10-19,63.1,50.6,36.5,43.6,38.9,33.6,95,66,43,29.78,29.55,7,2,17,0.02
2013-10-20,51.3,46.1,36.5,45.6,36.5,30.5,93,70,50,29.84,29.52,13,7,25,0.05
2013-10-21,61.9,47.2,31.8,41.7,34.8,29.3,96,66,37,29.92,29.77,7,1,17,0.00
2013-10-22,50.9,45.7,33.1,46.2,37.0,25.9,86,72,57,29.76,29.57,9,2,19,0.11
2013-10-23,52.2,38.8,29.1,35.5,29.3,23.6,92,70,36,29.62,29.44,7,2,15,0.07
2013-10-24,43.3,36.6,30.7,32.3,28.7,25.0,88,73,58,29.70,29.50,13,6,28,0.04
2013-10-25,43.0,36.6,33.3,28.3,24.9,21.1,75,63,47,29.92,29.70,9,4,20,0.00
2013-10-26,44.1,39.0,30.7,30.4,26.8,21.6,84,63,42,29.92,29.65,9,3,24,0.00
2013-10-27,45.9,39.7,30.2,32.5,28.1,21.2,81,64,44,29.85,29.60,10,4,24,0.00
2013-10-28,48.9,37.0,22.5,34.4,26.3,15.5,82,65,52,30.15,29.84,15,4,30,0.01
2013-10-29,44.6,27.6,14.9,22.4,12.8,5.6,83,58,21,30.22,30.12,6,1,14,0.00
2013-10-30,46.8,34.1,24.1,33.5,25.9,13.8,87,72,58,30.11,29.99,6,1,12,0.02
2013-10-31,56.1,43.1,27.9,52.8,39.7,24.0,92,88,79,30.03,29.67,4,0,11,0.18
2013-11-1,64.8,58.1,47.7,56.5,47.9,36.3,88,70,41,29.67,29.24,22,8,49,1.10
2013-11-2,57.4,44.9,34.0,41.6,36.5,31.1,93,74,50,29.66,29.48,7,2,15,0.02
2013-11-3,36.3,28.9,17.8,31.3,17.6,8.1,91,64,42,30.23,29.66,9,4,20,0.00
2013-11-4,40.3,25.1,14.4,14.0,10.6,6.4,76,57,30,30.42,30.23,5,1,11,0.00
2013-11-5,51.3,32.4,22.3,28.8,18.1,9.0,72,56,35,30.43,30.24,4,0,50,0.00
2013-11-6,60.4,45.8,31.3,41.0,34.3,25.1,81,65,44,30.24,29.76,8,2,17,0.00
2013-11-7,55.2,45.3,30.0,48.3,38.0,20.8,88,76,56,29.77,29.55,10,4,24,0.39
2013-11-8,41.2,31.4,24.3,28.6,19.7,16.6,77,62,46,29.89,29.65,12,4,27,0.00
2013-11-9,39.9,32.3,25.7,27.8,18.4,12.4,85,57,43,29.98,29.76,7,1,17,0.00
2013-11-10,44.8,36.1,30.0,36.8,30.3,23.6,88,80,62,29.76,29.55,12,4,28,0.14
2013-11-11,43.0,36.7,31.6,30.6,23.9,20.6,74,60,44,29.88,29.67,13,5,29,0.00
2013-11-12,38.1,25.0,19.4,30.7,14.8,8.4,87,66,50,29.98,29.68,8,2,19,0.01
2013-11-13,30.2,22.8,16.5,15.5,8.0,-2.2,65,53,26,30.05,29.85,10,2,20,0.00
2013-11-14,43.5,34.3,28.2,22.8,15.5,4.9,56,46,26,29.89,29.81,9,2,24,0.00
2013-11-15,56.8,40.4,30.7,20.1,10.8,1.0,59,31,19,30.00,29.89,4,0,17,0.00
2013-11-16,58.1,42.5,32.7,28.1,21.9,10.5,67,46,25,30.11,29.98,3,0,14,0.00
2013-11-17,52.3,42.7,31.6,49.5,37.7,24.3,91,82,69,30.09,29.59,2,0,17,0.05
2013-11-18,56.1,49.1,37.8,52.0,38.8,25.1,90,68,50,29.58,29.32,13,4,30,0.54
2013-11-19,37.8,29.0,22.6,25.1,14.6,6.2,79,55,47,30.10,29.50,12,3,30,0.00
2013-11-20,35.8,22.7,14.0,15.4,10.2,7.3,74,59,38,30.37,30.09,4,0,24,0.00
2013-11-21,46.9,30.1,13.6,23.8,10.2,2.8,75,47,20,30.37,30.14,2,0,12,0.00
2013-11-22,43.2,37.3,32.9,39.7,33.3,23.8,92,85,63,30.14,29.64,7,0,17,0.20
2013-11-23,42.6,29.7,19.6,37.2,16.9,1.9,81,59,36,29.76,29.57,12,4,29,0.01
2013-11-24,19.9,14.5,8.8,9.0,-8.3,-19.7,73,36,23,29.96,29.59,9,4,31,0.00
2013-11-25,28.4,15.9,3.9,10.5,-4.0,-18.4,65,41,23,30.10,29.95,4,0,19,0.00
2013-11-26,34.3,28.6,23.7,26.7,19.6,2.4,85,70,31,30.05,29.80,6,0,16,0.04
2013-11-27,42.1,33.1,27.9,40.2,30.3,24.0,94,89,84,29.79,29.18,7,1,18,0.48
2013-11-28,27.9,17.9,7.3,23.8,5.1,-6.9,85,58,34,30.15,29.31,10,2,27,0.00
2013-11-29,24.8,11.0,-0.6,5.6,-1.2,-10.3,72,59,33,30.46,30.14,2,0,14,0.00
2013-11-30,28.8,13.8,-4.2,10.3,-2.3,-14.2,70,50,27,30.48,30.12,1,0,15,0.00
2013-12-1,40.6,29.9,23.2,29.0,21.3,8.6,82,70,53,30.12,29.82,0,0,8,0.04
2013-12-2,37.6,32.3,27.5,32.3,28.0,22.0,88,84,76,29.82,29.69,0,0,1,0.00
2013-12-3,43.3,31.7,23.4,37.1,26.4,19.0,92,81,63,29.76,29.68,0,0,8,0.00
2013-12-4,38.3,29.5,23.4,24.4,20.5,17.0,78,69,51,29.94,29.76,1,0,11,0.00
2013-12-5,50.2,39.1,28.6,48.0,34.6,20.9,92,84,70,29.94,29.70,2,0,18,0.01
2013-12-6,52.3,37.0,28.2,50.1,31.3,21.8,93,80,60,29.94,29.71,6,0,21,0.33
2013-12-7,29.1,26.0,21.2,23.3,14.3,4.5,82,62,45,30.19,29.90,3,0,18,0.00
2013-12-8,25.5,20.3,14.0,9.4,6.9,2.7,69,56,41,30.32,30.19,1,0,10,0.00
2013-12-9,36.3,27.0,18.9,28.9,19.3,8.4,85,72,57,30.19,29.66,9,1,24,0.00
2013-12-10,32.7,29.5,24.8,23.0,14.7,-5.1,70,55,24,29.69,29.56,8,4,22,0.00
2013-12-13,18.7,7.8,-3.6,7.0,-3.0,-14.9,68,60,52,30.11,29.75,2,0,14,0.00
2013-12-14,9.0,1.7,-6.9,-1.0,-11.7,-17.3,65,53,33,30.28,29.84,4,0,17,0.00
2013-12-15,22.1,17.0,8.4,16.3,10.0,-1.0,79,73,65,29.84,29.31,10,2,24,0.00
2013-12-16,19.2,16.1,12.0,10.6,0.8,-12.1,70,52,25,29.75,29.46,13,6,29,0.00
2013-12-17,12.0,1.4,-14.4,3.8,-10.1,-27.0,69,58,51,29.92,29.73,0,0,3,0.00
2013-12-18,27.3,19.1,7.9,15.4,9.8,-0.6,75,67,57,29.76,29.67,8,1,12,0.00
2013-12-19,36.3,30.5,23.7,23.6,17.2,11.9,74,58,43,29.84,29.69,12,3,19,0.00
2013-12-20,48.6,42.2,32.9,39.7,35.2,23.9,88,77,53,29.85,29.68,6,1,23,0.14
2013-12-21,55.2,47.9,32.7,48.6,42.7,29.8,93,83,71,29.73,29.66,8,1,20,0.40
2013-12-22,60.4,39.2,27.5,52.4,34.8,23.6,94,85,61,29.76,29.49,4,0,18,0.06
2013-12-23,48.0,38.6,27.1,44.3,36.1,19.7,94,91,73,29.93,29.75,1,0,9,0.18
2013-12-24,27.1,18.8,8.6,20.0,9.5,0.3,76,67,56,29.99,29.87,6,1,19,0.00
2013-12-25,16.7,8.5,-0.4,2.1,-3.9,-10.2,68,57,37,30.22,29.98,4,0,16,0.01
2013-12-26,27.9,21.0,14.5,19.3,11.1,-1.9,77,65,47,30.12,29.84,2,0,13,0.00
2013-12-27,28.2,24.1,20.3,17.0,14.1,9.0,75,65,46,29.99,29.93,8,2,21,0.00
2013-12-28,38.3,32.4,23.2,26.3,21.9,13.9,81,65,53,29.93,29.76,12,3,36,0.05
2013-12-29,38.7,32.9,28.6,29.2,26.6,22.6,88,78,64,29.81,29.41,0,0,1,0.00
2013-12-30,33.3,21.5,-0.9,29.8,12.4,-10.7,88,68,44,29.91,29.41,13,4,31,0.01
2013-12-31,16.7,7.7,-2.2,6.0,-3.1,-12.2,70,61,48,29.90,29.72,16,1,30,0.00
2014-1-1,16.5,9.7,2.5,1.2,-3.0,-7.1,64,56,45,30.08,29.85,7,2,21,0.00
2014-1-2,7.0,-0.4,-12.8,-4.9,-11.8,-26.0,63,57,50,30.07,29.62,0,0,10,0.00